John C. Munro Hamilton International Airport
CYHM : now visible

Airfield :











YOU CAN JOIN US ON...

 
LOGIN :

Register | Disclaimer

   EN    FR    IT 

 









Legend :    VFR   Marginal VFR   IFR   Intensive IFR   Very Intensive IFR
Visi :
Ceiling :
>= 8 km
>= 3000ft
5 to 8 km
1000 to 3000 ft
1500m to 5 km
500 to 1000 ft
800 to 1500m
200 to 500 ft
< 800m
< 200 ft
Symbols :   Thunderstorms  Fog  Heavy snow  Heavy precipitations  Wind > 20 kt






- Airport Elevation : 780 ft
- IATA code : YHM


CYHM - John C. Munro Hamilton International

CURRENT METAR :
  • 260500Z 02016G26KT 5SM -RA BR OVC005 05/04 A2977 RMK SC8 SLP089

EXPIRED METARs :
  • 260424Z 02016G22KT 6SM -RA BR OVC006 05/04 A2977 RMK SC8 SLP088
  • 260400Z 02019G26KT 3SM -RA BR OVC005 05/04 A2977 RMK SC8 SLP086
  • 260300Z 02019G25KT 1 3/4SM -RA BR BKN003 OVC009 05/05 A2978 RMK ST6SC2 SLP091

TAF TAF CYHM
Valid from the 26 at 00:00 until the 27 at 00:00 UTC


252338Z 2600/2624 03020G30KT 1SM -RA BR OVC003
TEMPO 2600/2609 6SM -RA BR SCT003 OVC010
BECMG 2600/2601 02015G25KT
FM260900 01010KT 3SM -SHRA BR SCT003 OVC008
TEMPO 2609/2615 P6SM -RA OVC012
FM261500 35010G20KT P6SM -SHRA OVC015
FM262000 35012KT P6SM OVC015 RMK NXT FCST BY 260600Z
CZYZ FIR / North America



MET'MAP, your aeronautical weather chart ! - Copyright ORBIFLY December 2007 - Disclaimer

ORBIFLY MET'MAP TEAM :

Programming & Development : Alexandra Zaïnal
Concept & original design : Baudouin d'Aumeries
Assistance for programming : Marc-Olivier Méhu
Technical & hardware support : Manuel Goepfert

Contact : metmap@orbifly.com




SOURCES & CREDITS :

   NOAA       Earth
Advisory